createdAt,value
2019-03-19T00:03:34.988Z,101377.71
2019-03-19T00:08:37.444Z,101379.25
2019-03-19T00:13:40.008Z,101396.23
2019-03-19T00:18:42.391Z,101396.41
2019-03-19T00:23:44.994Z,101394.47
2019-03-19T00:28:47.469Z,101404.41
2019-03-19T00:33:49.933Z,101397.28
2019-03-19T00:38:52.402Z,101405.22
2019-03-19T00:43:54.877Z,101404.66
2019-03-19T00:48:57.319Z,101397.58
2019-03-19T00:53:59.770Z,101396.20
2019-03-19T00:59:02.213Z,101404.59
2019-03-19T01:04:04.669Z,101402.50
2019-03-19T01:09:07.128Z,101408.25
2019-03-19T01:14:09.575Z,101397.13
2019-03-19T01:19:12.020Z,101396.94
2019-03-19T01:24:14.473Z,101396.06
2019-03-19T01:29:16.924Z,101398.02
2019-03-19T01:34:19.465Z,101389.23
2019-03-19T01:39:21.917Z,101395.60
2019-03-19T01:44:24.369Z,101401.27
2019-03-19T01:49:26.833Z,101398.36
2019-03-19T01:54:29.284Z,101408.15
2019-03-19T01:59:31.737Z,101408.31
2019-03-19T02:04:34.204Z,101403.16
2019-03-19T02:09:36.922Z,101410.17
2019-03-19T02:14:39.385Z,101411.96
2019-03-19T02:19:41.857Z,101410.31
2019-03-19T02:24:44.296Z,101415.34
2019-03-19T02:29:46.762Z,101418.77
2019-03-19T02:34:49.219Z,101406.14
2019-03-19T02:39:51.670Z,101406.34
2019-03-19T02:44:54.114Z,101419.47
2019-03-19T02:49:59.333Z,101423.42
2019-03-19T02:55:01.826Z,101429.80
2019-03-19T03:00:16.161Z,101428.20
2019-03-19T03:05:18.589Z,101439.17
2019-03-19T03:10:21.063Z,101444.23
2019-03-19T03:15:23.504Z,101449.52
2019-03-19T03:20:25.952Z,101449.41
2019-03-19T03:25:28.403Z,101455.45
2019-03-19T03:30:30.922Z,101447.66
2019-03-19T03:35:33.302Z,101453.56
2019-03-19T03:40:35.761Z,101467.37
2019-03-19T03:45:38.216Z,101475.75
2019-03-19T03:50:40.668Z,101473.34
2019-03-19T03:55:43.117Z,101479.51
2019-03-19T04:00:45.582Z,101492.38
2019-03-19T04:05:48.026Z,101501.62
2019-03-19T04:10:50.480Z,101512.63
2019-03-19T04:15:52.939Z,101515.95
2019-03-19T04:20:55.382Z,101528.73
2019-03-19T04:25:57.905Z,101531.62
2019-03-19T04:31:00.322Z,101541.09
2019-03-19T04:36:02.772Z,101537.16
2019-03-19T04:41:05.235Z,101543.33
2019-03-19T04:46:07.685Z,101545.28
2019-03-19T04:51:10.149Z,101567.95
2019-03-19T04:56:12.621Z,101569.66
2019-03-19T05:01:15.179Z,101579.72
2019-03-19T05:06:17.622Z,101578.63
2019-03-19T05:11:20.094Z,101585.98
2019-03-19T05:16:22.546Z,101594.42
2019-03-19T05:21:25.007Z,101591.64
2019-03-19T05:26:27.471Z,101592.48
2019-03-19T05:31:29.942Z,101596.69
2019-03-19T05:36:32.403Z,101598.78
2019-03-19T05:41:34.887Z,101602.36
2019-03-19T05:46:37.353Z,101601.79
2019-03-19T05:51:39.848Z,101613.64
2019-03-19T05:56:42.310Z,101616.02
2019-03-19T06:01:44.775Z,101618.44
2019-03-19T06:06:47.240Z,101623.40
2019-03-19T06:11:49.707Z,101634.05
2019-03-19T06:16:52.166Z,101636.97
2019-03-19T06:21:56.690Z,101648.84
2019-03-19T06:26:57.087Z,101646.24
2019-03-19T06:31:59.560Z,101659.31
2019-03-19T06:37:02.024Z,101663.05
2019-03-19T06:42:04.485Z,101667.15
2019-03-19T06:47:07.006Z,101670.45
2019-03-19T06:52:09.413Z,101675.44
2019-03-19T06:57:11.881Z,101679.93
2019-03-19T07:02:14.352Z,101687.06
2019-03-19T07:07:16.814Z,101683.86
2019-03-19T07:12:19.271Z,101688.59
2019-03-19T07:17:21.736Z,101699.36
2019-03-19T07:22:24.220Z,101693.26
2019-03-19T07:27:26.679Z,101702.70
2019-03-19T07:32:29.152Z,101712.45
2019-03-19T07:37:31.611Z,101703.55
2019-03-19T07:42:34.054Z,101707.95
2019-03-19T07:47:36.531Z,101710.31
2019-03-19T07:52:38.989Z,101726.26
2019-03-19T07:57:41.468Z,101732.59
2019-03-19T08:02:43.951Z,101734.55
2019-03-19T08:07:46.423Z,101752.63
2019-03-19T08:12:48.887Z,101757.53
2019-03-19T08:17:51.346Z,101766.36
2019-03-19T08:22:53.832Z,101763.11
2019-03-19T08:27:56.290Z,101760.11
2019-03-19T08:32:58.758Z,101769.63
2019-03-19T08:38:01.202Z,101776.59
2019-03-19T08:43:03.659Z,101780.39
2019-03-19T08:48:06.164Z,101770.38
2019-03-19T08:53:08.649Z,101773.29
2019-03-19T08:58:11.111Z,101775.50
2019-03-19T09:03:13.585Z,101779.16
2019-03-19T09:08:16.058Z,101783.82
2019-03-19T09:13:18.521Z,101784.57
2019-03-19T09:18:21.002Z,101789.70
2019-03-19T09:23:23.496Z,101789.53
2019-03-19T09:28:26.003Z,101797.11
2019-03-19T09:33:28.421Z,101799.23
2019-03-19T09:38:30.884Z,101798.38
2019-03-19T09:43:33.386Z,101784.31
2019-03-19T09:48:35.930Z,101790.10
2019-03-19T09:53:38.353Z,101801.75
2019-03-19T09:58:40.821Z,101799.80
2019-03-19T10:03:43.290Z,101803.64
2019-03-19T10:08:45.766Z,101796.27
2019-03-19T10:13:48.239Z,101799.11
2019-03-19T10:18:50.700Z,101800.65
2019-03-19T10:23:53.162Z,101796.08
2019-03-19T10:28:55.628Z,101796.30
2019-03-19T10:33:58.113Z,101793.20
2019-03-19T10:39:00.558Z,101790.03
2019-03-19T10:44:03.033Z,101786.08
2019-03-19T10:49:05.478Z,101790.77
2019-03-19T10:54:07.935Z,101802.75
2019-03-19T10:59:10.392Z,101791.09
2019-03-19T11:04:12.855Z,101785.55
2019-03-19T11:09:15.325Z,101790.19
2019-03-19T11:14:17.809Z,101772.92
2019-03-19T11:19:20.307Z,101768.33
2019-03-19T11:24:22.766Z,101772.06
2019-03-19T11:29:25.231Z,101767.72
2019-03-19T11:34:27.696Z,101766.88
2019-03-19T11:39:30.160Z,101778.83
2019-03-19T11:44:32.641Z,101772.77
2019-03-19T11:49:35.127Z,101758.28
2019-03-19T11:54:37.601Z,101758.41
2019-03-19T11:59:40.065Z,101760.73
2019-03-19T12:04:42.533Z,101750.88
2019-03-19T12:09:45.009Z,101752.05
2019-03-19T12:14:47.594Z,101758.61
2019-03-19T12:19:49.959Z,101756.03
2019-03-19T12:24:52.425Z,101754.83
2019-03-19T12:29:54.893Z,101751.33
2019-03-19T12:34:57.356Z,101752.98
2019-03-19T12:39:59.837Z,101751.18
2019-03-19T12:45:02.304Z,101748.69
2019-03-19T12:50:04.838Z,101736.47
2019-03-19T12:55:07.269Z,101741.77
2019-03-19T13:00:33.478Z,101747.64
2019-03-19T13:05:27.274Z,101751.55
2019-03-19T13:10:29.736Z,101740.23
2019-03-19T13:15:32.200Z,101738.47
2019-03-19T13:20:34.680Z,101737.42
2019-03-19T13:25:37.138Z,101744.33
2019-03-19T13:30:45.104Z,101737.31
2019-03-19T13:35:42.133Z,101740.63
2019-03-19T13:40:44.665Z,101739.67
2019-03-19T13:45:47.098Z,101737.83
2019-03-19T13:50:49.580Z,101736.80
2019-03-19T13:55:52.087Z,101735.86
2019-03-19T14:00:55.823Z,101737.92
2019-03-19T14:05:57.029Z,101732.73
2019-03-19T14:10:59.513Z,101736.28
2019-03-19T14:16:01.977Z,101736.66
2019-03-19T14:21:04.452Z,101741.48
2019-03-19T14:26:06.936Z,101734.38
2019-03-19T14:31:09.467Z,101737.45
2019-03-19T14:36:11.940Z,101739.75
2019-03-19T14:41:14.424Z,101735.06
2019-03-19T14:46:16.869Z,101743.21
2019-03-19T14:51:19.333Z,101743.96
2019-03-19T14:56:21.804Z,101738.01
2019-03-19T15:01:24.278Z,101740.62
2019-03-19T15:06:26.767Z,101746.97
2019-03-19T15:11:29.244Z,101734.03
2019-03-19T15:16:31.715Z,101738.72
2019-03-19T15:21:34.189Z,101744.67
2019-03-19T15:26:36.693Z,101736.82
2019-03-19T15:31:39.176Z,101740.00
2019-03-19T15:36:41.646Z,101749.21
2019-03-19T15:41:44.128Z,101736.20
2019-03-19T15:46:46.626Z,101749.40
2019-03-19T15:51:49.092Z,101753.53
2019-03-19T15:56:51.555Z,101752.96
2019-03-19T16:01:54.040Z,101757.61
2019-03-19T16:06:56.515Z,101763.26
2019-03-19T16:11:58.994Z,101779.66
2019-03-19T16:17:01.461Z,101783.84
2019-03-19T16:22:03.938Z,101791.08
2019-03-19T16:27:06.418Z,101795.94
2019-03-19T16:32:08.878Z,101804.00
2019-03-19T16:37:11.357Z,101803.23
2019-03-19T16:42:13.820Z,101811.44
2019-03-19T16:47:16.286Z,101819.67
2019-03-19T16:52:18.758Z,101819.88
2019-03-19T16:57:21.253Z,101828.75
2019-03-19T17:02:23.695Z,101831.42
2019-03-19T17:07:26.155Z,101840.74
2019-03-19T17:12:28.636Z,101835.20
2019-03-19T17:17:31.110Z,101848.30
2019-03-19T17:22:33.597Z,101846.32
2019-03-19T17:27:36.051Z,101858.76
2019-03-19T17:32:38.565Z,101858.94
2019-03-19T17:37:41.035Z,101873.99
2019-03-19T17:42:43.514Z,101882.06
2019-03-19T17:47:45.956Z,101874.97
2019-03-19T17:52:51.209Z,101887.37
2019-03-19T17:57:53.617Z,101891.70
2019-03-19T18:02:56.075Z,101894.91
2019-03-19T18:07:58.579Z,101905.38
2019-03-19T18:13:01.045Z,101907.05
2019-03-19T18:18:03.503Z,101919.31
2019-03-19T18:23:06.235Z,101919.75
2019-03-19T18:28:08.486Z,101920.48
2019-03-19T18:33:10.956Z,101921.20
2019-03-19T18:38:13.429Z,101926.20
2019-03-19T18:43:15.887Z,101931.39
2019-03-19T18:48:18.376Z,101937.20
2019-03-19T18:53:20.869Z,101938.15
2019-03-19T18:58:23.338Z,101943.45
2019-03-19T19:03:25.832Z,101952.48
2019-03-19T19:08:28.317Z,101957.35
2019-03-19T19:13:30.794Z,101962.55
2019-03-19T19:18:33.355Z,101958.95
2019-03-19T19:23:35.843Z,101966.59
2019-03-19T19:28:38.350Z,101973.50
2019-03-19T19:33:40.850Z,101980.87
2019-03-19T19:38:43.361Z,101981.70
2019-03-19T19:43:45.817Z,101985.13
2019-03-19T19:48:48.313Z,101990.44
2019-03-19T19:53:50.795Z,101997.80
2019-03-19T19:58:53.270Z,102001.38
2019-03-19T20:03:55.731Z,102002.24
2019-03-19T20:08:58.240Z,102001.07
2019-03-19T20:14:00.711Z,101998.91
2019-03-19T20:19:03.209Z,102015.81
2019-03-19T20:24:05.697Z,102019.99
2019-03-19T20:29:08.196Z,102024.19
2019-03-19T20:34:10.674Z,102029.52
2019-03-19T20:39:13.146Z,102031.69
2019-03-19T20:44:15.653Z,102033.00
2019-03-19T20:49:18.135Z,102031.99
2019-03-19T20:54:20.619Z,102045.90
2019-03-19T20:59:23.111Z,102057.56
2019-03-19T21:04:25.588Z,102059.92
2019-03-19T21:09:28.114Z,102079.59
2019-03-19T21:14:30.595Z,102080.83
2019-03-19T21:19:33.076Z,102078.30
2019-03-19T21:24:35.556Z,102092.25
2019-03-19T21:29:38.041Z,102091.42
2019-03-19T21:34:40.517Z,102102.83
2019-03-19T21:39:43.006Z,102102.21
2019-03-19T21:44:45.471Z,102112.04
2019-03-19T21:49:47.941Z,102113.48
2019-03-19T21:54:50.443Z,102112.47
2019-03-19T21:59:52.935Z,102117.72
2019-03-19T22:04:55.437Z,102118.50
2019-03-19T22:09:57.924Z,102129.84
2019-03-19T22:15:00.388Z,102126.14
2019-03-19T22:20:02.850Z,102131.77
2019-03-19T22:25:05.363Z,102131.31
2019-03-19T22:30:13.683Z,102130.25
2019-03-19T22:35:16.140Z,102137.93
2019-03-19T22:40:18.612Z,102138.75
2019-03-19T22:45:21.098Z,102132.95
2019-03-19T22:50:23.599Z,102139.09
2019-03-19T22:55:29.383Z,102137.80
2019-03-19T23:00:31.500Z,102154.38
2019-03-19T23:05:33.982Z,102156.06
2019-03-19T23:10:36.446Z,102153.55
2019-03-19T23:15:38.966Z,102157.02
2019-03-19T23:20:41.436Z,102161.59
2019-03-19T23:25:43.909Z,102164.36
2019-03-19T23:30:46.365Z,102166.05
2019-03-19T23:35:48.836Z,102169.50
2019-03-19T23:40:51.296Z,102178.55
2019-03-19T23:45:53.769Z,102185.82
2019-03-19T23:50:56.223Z,102193.70
2019-03-19T23:55:58.725Z,102197.20
